Airfield :
LOGIN :

Register | Disclaimer

   EN    FR    IT 

 










Legend :    VFR   Marginal VFR   IFR   Intensive IFR   Very Intensive IFR
Visi :
Ceiling :
>= 8 km
>= 3000ft
5 to 8 km
1000 to 3000 ft
1500m to 5 km
500 to 1000 ft
800 to 1500m
200 to 500 ft
< 800m
< 200 ft
Symbols :   Thunderstorms  Fog  Heavy snow  Heavy precipitations  Wind > 20 kt
SIGMETs :     Misc.  Thunderstorms  Icing  Turbulence  Mountain Waves  Volcanic Ashes







- Airport Elevation : 236 ft
- IATA code : MMX


ESMS - Malmö Sturup

CURRENT METAR :
  • 130450Z 26006KT 9999 BKN010 09/08 Q1016

EXPIRED METARs :
  • 130420Z 26006KT 9999 BKN011 09/08 Q1016
  • 130350Z 27006KT 9999 BKN012 09/08 Q1016
  • 130320Z 28006KT 9999 BKN015 09/08 Q1016
  • 130250Z 26007KT 9000 SCT008 BKN015 09/08 Q1016
  • 130220Z 26009KT 9999 SCT008 BKN011 09/09 Q1015

TAF TAF ESMS
Valid from the 13 at 00:00 until the 14 at 00:00 UTC


122301Z 1300/1324 22008KT 6000 BKN012
TEMPO 1300/1309 1200 BR BKN003
BECMG 1309/1311 BKN015
TEMPO 1311/1313 4000 BR BKN006
TEMPO 1313/1321 2000 SHRA BR BKN008 SCT012CB
TEMPO 1321/1324 1200 BR BKN004
No reported NOTAMs for that airfield.



MET'MAP, your aeronautical weather chart ! - Copyright ORBIFLY December 2007 - Disclaimer

ORBIFLY MET'MAP TEAM :

Programming & Development : Alexandra Zaïnal
Concept & Development : Baudouin d'Aumeries
Co-Development & Prog : Marc-Olivier Méhu
Technical & hardware support : Manuel Goepfert

Contact : metmap@orbifly.com




SOURCES & CREDITS :

   NOAA